Time;durP1;ratioP1;P1;durP2;ratioP2;P2;SDS_P1;SDS_P2;PMS_P1;PMS_P2;Temp;Humidity;BMP_temperature;BMP_pressure;BME280_temperature;BME280_humidity;BME280_pressure;Samples;Min_cycle;Max_cycle;Signal;HPM_P1;HPM_P2
2021/12/05 00:22:47;;;;;;;2.30;1.10;;;4.30;75.70;;;;;;5071321;28;46480;-67
2021/12/05 00:25:24;;;;;;;2.93;0.90;;;4.20;75.70;;;;;;5069109;28;46394;-67
2021/12/05 00:42:21;;;;;;;2.50;1.07;;;4.20;75.40;;;;;;5073871;28;46171;-67
2021/12/05 00:50:10;;;;;;;2.20;1.40;;;4.20;75.40;;;;;;5070289;28;46366;-67
2021/12/05 01:16:18;;;;;;;2.40;0.83;;;4.40;75.10;;;;;;5066701;28;46417;-66
2021/12/05 01:18:45;;;;;;;1.83;0.80;;;4.30;75.10;;;;;;5077201;28;46359;-67
2021/12/05 01:21:15;;;;;;;1.00;0.87;;;4.30;75.20;;;;;;5073635;28;46353;-67
2021/12/05 01:26:35;;;;;;;2.33;0.90;;;4.40;75.30;;;;;;5068090;28;46463;-67
2021/12/05 01:52:47;;;;;;;2.30;1.27;;;4.70;74.40;;;;;;5071196;28;46382;-67
2021/12/05 02:40:48;;;;;;;4.32;0.80;;;3.00;77.40;;;;;;5069812;28;46924;-66
2021/12/05 02:43:25;;;;;;;3.17;0.90;;;3.00;77.20;;;;;;5069243;28;46213;-68
2021/12/05 02:45:52;;;;;;;2.05;0.90;;;3.00;77.30;;;;;;5071500;28;46494;-68
2021/12/05 02:48:21;;;;;;;5.65;1.00;;;3.10;77.00;;;;;;5068768;28;46413;-67
2021/12/05 02:50:47;;;;;;;6.40;0.88;;;3.10;76.90;;;;;;5071958;28;46527;-66
2021/12/05 02:53:22;;;;;;;1.87;0.70;;;3.10;76.70;;;;;;5069652;28;46252;-67
2021/12/05 02:55:50;;;;;;;2.00;1.20;;;3.10;76.60;;;;;;5069915;28;46308;-67
2021/12/05 03:03:30;;;;;;;1.95;0.82;;;3.20;76.10;;;;;;5074171;28;46344;-68
2021/12/05 03:06:03;;;;;;;1.20;0.80;;;3.10;76.10;;;;;;5074063;28;46414;-66
2021/12/05 03:08:29;;;;;;;1.10;0.80;;;3.20;76.10;;;;;;5076913;28;46620;-66
2021/12/05 03:10:56;;;;;;;7.00;1.30;;;3.10;76.10;;;;;;5079510;28;47673;-67
2021/12/05 03:13:22;;;;;;;1.73;0.70;;;3.20;76.10;;;;;;5080462;28;46309;-66
2021/12/05 03:15:49;;;;;;;1.83;1.00;;;3.10;76.10;;;;;;5075018;28;46390;-68
2021/12/05 03:18:14;;;;;;;3.28;0.85;;;3.10;76.30;;;;;;5074215;27;45958;-67
2021/12/05 03:20:41;;;;;;;3.37;1.10;;;3.00;76.30;;;;;;5068392;28;46324;-67
2021/12/05 03:23:07;;;;;;;9.88;1.63;;;3.00;76.60;;;;;;5070524;28;45994;-65
2021/12/05 03:25:33;;;;;;;3.83;1.00;;;2.90;76.60;;;;;;5080760;28;46421;-66
2021/12/05 03:27:59;;;;;;;2.83;0.97;;;2.90;76.90;;;;;;5074162;28;46560;-66
2021/12/05 03:30:26;;;;;;;3.55;1.02;;;2.90;76.80;;;;;;5074369;28;47813;-65
2021/12/05 03:32:54;;;;;;;6.07;1.45;;;2.90;76.60;;;;;;5072522;28;46328;-67
2021/12/05 03:35:23;;;;;;;2.88;1.20;;;2.90;76.70;;;;;;5070564;28;46442;-67
2021/12/05 03:37:49;;;;;;;2.23;1.10;;;2.90;76.60;;;;;;5068147;28;46455;-67
2021/12/05 03:40:18;;;;;;;2.15;1.30;;;2.90;76.60;;;;;;5075375;28;47185;-67
2021/12/05 03:42:45;;;;;;;3.10;1.33;;;2.90;76.70;;;;;;5070136;28;45926;-67
2021/12/05 03:45:16;;;;;;;4.22;1.58;;;2.90;76.60;;;;;;5072796;28;46477;-67
2021/12/05 03:47:42;;;;;;;2.13;1.47;;;3.00;76.60;;;;;;5075640;27;46290;-67
2021/12/05 03:50:10;;;;;;;5.43;1.60;;;3.00;76.60;;;;;;5070013;28;46279;-67
2021/12/05 03:52:37;;;;;;;2.85;1.42;;;3.00;76.70;;;;;;5078828;28;46731;-65
2021/12/05 03:55:05;;;;;;;6.95;1.50;;;3.10;76.60;;;;;;5073680;28;46498;-67
2021/12/05 03:57:31;;;;;;;2.67;1.60;;;3.10;76.60;;;;;;5075135;28;45957;-67
2021/12/05 03:59:57;;;;;;;5.50;1.67;;;3.20;76.40;;;;;;5087549;27;47921;-66
2021/12/05 04:02:23;;;;;;;1.83;1.47;;;3.30;76.20;;;;;;5073708;28;46357;-68
2021/12/05 04:04:50;;;;;;;8.23;1.80;;;3.30;76.00;;;;;;5076378;27;46371;-67
2021/12/05 04:07:16;;;;;;;5.53;1.45;;;3.40;75.90;;;;;;5079493;27;46476;-66
2021/12/05 04:09:43;;;;;;;2.57;1.13;;;3.40;75.80;;;;;;5079698;28;47017;-67
2021/12/05 04:12:10;;;;;;;2.05;1.60;;;3.40;75.80;;;;;;5066584;28;46502;-67
2021/12/05 04:14:42;;;;;;;3.40;1.38;;;3.50;75.80;;;;;;5069224;28;46270;-66
2021/12/05 04:17:10;;;;;;;4.68;1.92;;;3.50;75.70;;;;;;5072051;28;46390;-67
2021/12/05 04:19:37;;;;;;;8.85;1.67;;;3.50;75.90;;;;;;5072703;27;48021;-68
2021/12/05 04:22:04;;;;;;;6.07;1.60;;;3.50;76.00;;;;;;5074763;28;46362;-67
2021/12/05 04:24:30;;;;;;;4.30;1.30;;;3.40;76.00;;;;;;5091903;27;46426;-67
2021/12/05 04:26:56;;;;;;;6.78;1.67;;;3.40;76.20;;;;;;5076926;28;46366;-67
2021/12/05 04:29:22;;;;;;;3.70;1.70;;;3.40;76.30;;;;;;5074031;27;46385;-67
2021/12/05 04:31:48;;;;;;;3.53;1.90;;;3.40;76.20;;;;;;5071934;28;46506;-68
2021/12/05 04:34:15;;;;;;;5.43;1.70;;;3.50;76.10;;;;;;5075499;28;46330;-67
2021/12/05 04:36:42;;;;;;;3.83;1.50;;;3.50;76.10;;;;;;5076550;27;46375;-68
2021/12/05 04:39:08;;;;;;;3.85;1.70;;;3.50;76.10;;;;;;5073324;28;47818;-67
2021/12/05 04:41:34;;;;;;;7.13;1.60;;;3.50;76.10;;;;;;5079421;28;46300;-67
2021/12/05 04:44:01;;;;;;;3.53;1.75;;;3.50;76.10;;;;;;5077565;28;46549;-65
2021/12/05 04:46:28;;;;;;;2.97;1.90;;;3.50;76.10;;;;;;5074651;27;46398;-67
2021/12/05 04:48:56;;;;;;;6.93;2.10;;;3.50;76.00;;;;;;5071954;27;48736;-67
2021/12/05 04:51:29;;;;;;;5.05;1.70;;;3.50;76.10;;;;;;5078988;28;46439;-67
2021/12/05 04:53:56;;;;;;;1.80;1.60;;;3.50;76.00;;;;;;5088918;27;46618;-67
2021/12/05 04:56:22;;;;;;;6.00;1.90;;;3.50;76.10;;;;;;5070166;27;46313;-67
2021/12/05 04:58:48;;;;;;;6.40;1.73;;;3.50;76.10;;;;;;5070996;28;47992;-67
2021/12/05 05:01:14;;;;;;;2.97;1.63;;;3.40;76.00;;;;;;5073026;27;46437;-67
2021/12/05 05:03:39;;;;;;;3.93;2.00;;;3.40;76.10;;;;;;5069602;28;46556;-68
2021/12/05 05:06:17;;;;;;;5.50;1.80;;;3.40;76.30;;;;;;5068150;28;46304;-67
2021/12/05 05:08:45;;;;;;;5.93;2.15;;;3.40;76.30;;;;;;5078375;28;46370;-67
2021/12/05 05:11:13;;;;;;;3.42;1.70;;;3.30;76.20;;;;;;5076018;28;46434;-67
2021/12/05 05:13:40;;;;;;;3.47;1.48;;;3.30;76.30;;;;;;5072454;28;46535;-67
2021/12/05 05:16:07;;;;;;;3.93;1.63;;;3.20;76.30;;;;;;5075743;27;46530;-67
2021/12/05 05:19:07;;;;;;;5.13;1.98;;;3.20;76.40;;;;;;5074147;27;48201;-67
2021/12/05 05:43:20;;;;;;;7.15;4.60;;;2.80;77.00;;;;;;5068538;28;45920;-67
2021/12/05 05:48:38;;;;;;;5.80;2.00;;;2.80;77.00;;;;;;5070688;27;46465;-65
2021/12/05 05:51:05;;;;;;;4.47;1.60;;;2.80;77.00;;;;;;5074255;27;46541;-66
2021/12/05 05:53:31;;;;;;;2.85;2.10;;;2.80;77.00;;;;;;5078412;28;46317;-65
2021/12/05 05:55:57;;;;;;;11.07;2.20;;;2.80;77.00;;;;;;5069566;28;46451;-66
2021/12/05 05:58:44;;;;;;;4.13;1.85;;;2.80;77.00;;;;;;5069363;28;45936;-65
2021/12/05 06:01:20;;;;;;;6.60;1.90;;;2.80;76.80;;;;;;5070579;28;47404;-66
2021/12/05 06:03:49;;;;;;;3.55;1.70;;;2.80;76.70;;;;;;5072935;28;46363;-65
2021/12/05 06:06:16;;;;;;;6.88;2.55;;;2.80;76.70;;;;;;5067783;28;46383;-66
2021/12/05 06:08:43;;;;;;;5.35;2.15;;;2.80;76.70;;;;;;5072330;28;46529;-65
2021/12/05 06:11:12;;;;;;;6.88;1.73;;;2.70;76.70;;;;;;5087608;27;46321;-65
2021/12/05 06:13:39;;;;;;;4.70;1.75;;;2.70;76.70;;;;;;5076617;28;45845;-65
2021/12/05 06:16:13;;;;;;;4.13;2.10;;;2.70;76.80;;;;;;5066063;28;47103;-65
2021/12/05 06:18:39;;;;;;;5.95;1.40;;;2.70;76.70;;;;;;5069739;28;46367;-65
2021/12/05 06:21:06;;;;;;;2.47;1.60;;;2.70;76.70;;;;;;5075180;27;48035;-65
2021/12/05 06:23:32;;;;;;;5.30;1.67;;;2.70;76.70;;;;;;5070744;28;46495;-65
2021/12/05 06:26:00;;;;;;;3.33;1.80;;;2.70;76.80;;;;;;5068370;27;46530;-65
2021/12/05 06:28:35;;;;;;;6.93;2.03;;;2.70;76.90;;;;;;5072217;28;46689;-65
2021/12/05 06:31:11;;;;;;;3.95;1.73;;;2.70;76.90;;;;;;5073707;28;48935;-63
2021/12/05 06:47:38;;;;;;;7.28;1.70;;;2.70;77.60;;;;;;5018138;28;46515;-66
2021/12/05 06:50:05;;;;;;;10.23;2.77;;;2.80;77.50;;;;;;5019640;28;46262;-67
2021/12/05 06:52:31;;;;;;;4.47;1.65;;;2.80;77.10;;;;;;5051682;27;46588;-67
2021/12/05 06:54:56;;;;;;;4.23;1.97;;;2.80;77.10;;;;;;5073383;28;46708;-65
2021/12/05 06:57:22;;;;;;;4.10;1.93;;;2.80;77.10;;;;;;5074959;28;46448;-66
2021/12/05 06:59:49;;;;;;;5.87;1.83;;;2.80;77.00;;;;;;5069087;27;46517;-66
2021/12/05 07:02:18;;;;;;;6.07;1.80;;;2.80;77.00;;;;;;5074883;28;46392;-66
2021/12/05 07:07:33;;;;;;;3.42;1.88;;;2.80;77.20;;;;;;5073651;28;46402;-65
2021/12/05 07:10:00;;;;;;;5.05;1.73;;;2.80;77.20;;;;;;5071029;28;46501;-68
2021/12/05 07:15:42;;;;;;;8.63;2.00;;;2.90;77.30;;;;;;5074481;28;46468;-66
2021/12/05 07:23:58;;;;;;;2.58;1.30;;;2.90;77.00;;;;;;5072934;28;46555;-66
2021/12/05 07:26:28;;;;;;;3.75;1.50;;;2.90;77.00;;;;;;5064021;27;46567;-66
2021/12/05 07:42:27;;;;;;;2.72;1.48;;;3.20;76.50;;;;;;5071438;28;46463;-65
2021/12/05 07:44:56;;;;;;;3.55;1.40;;;3.20;76.40;;;;;;5073591;28;47878;-64
2021/12/05 07:47:27;;;;;;;2.78;1.98;;;3.20;76.40;;;;;;5073705;28;46416;-66
2021/12/05 07:49:54;;;;;;;6.60;1.80;;;3.20;76.40;;;;;;5068262;28;46308;-66
2021/12/05 07:52:23;;;;;;;4.90;1.50;;;3.20;76.60;;;;;;5072399;28;46418;-64
2021/12/05 07:54:56;;;;;;;1.90;1.60;;;3.20;76.50;;;;;;5070895;28;48021;-66
2021/12/05 07:57:29;;;;;;;3.60;1.30;;;3.30;76.60;;;;;;5071901;27;46507;-65
2021/12/05 08:14:36;;;;;;;2.67;1.60;;;3.60;76.30;;;;;;5073740;28;46473;-67
2021/12/05 08:16:28;;;;;;;1.90;1.42;;;3.60;76.00;;;;;;5059624;28;46356;-66
2021/12/05 08:18:54;;;;;;;3.35;1.63;;;3.70;76.00;;;;;;5076584;28;46730;-67
2021/12/05 08:21:20;;;;;;;3.60;1.67;;;3.70;75.90;;;;;;5071277;28;46402;-66
2021/12/05 08:23:48;;;;;;;5.60;1.70;;;3.80;75.90;;;;;;5072125;27;46566;-67
2021/12/05 08:26:19;;;;;;;2.90;2.30;;;3.80;76.00;;;;;;5071274;28;46189;-67
2021/12/05 08:29:06;;;;;;;3.47;1.65;;;3.80;75.80;;;;;;5078711;28;45907;-67
2021/12/05 08:38:47;;;;;;;4.25;1.50;;;3.90;75.80;;;;;;5026794;28;47158;-67
2021/12/05 09:38:30;;;;;;;6.17;3.57;;;5.40;74.00;;;;;;5076868;28;47015;-67
2021/12/05 09:40:31;;;;;;;4.57;3.13;;;5.60;72.90;;;;;;5072419;28;46378;-67
2021/12/05 10:02:21;;;;;;;4.20;1.53;;;6.10;71.40;;;;;;5072547;27;46377;-68
2021/12/05 10:08:00;;;;;;;4.63;2.30;;;6.10;71.40;;;;;;5076277;28;46351;-66
2021/12/05 10:16:43;;;;;;;7.33;1.67;;;6.20;71.00;;;;;;5054129;28;46515;-67
2021/12/05 10:40:37;;;;;;;5.43;1.80;;;6.50;69.20;;;;;;5078076;27;46380;-67
2021/12/05 10:43:12;;;;;;;5.73;2.10;;;6.50;69.60;;;;;;5071351;28;46382;-67
2021/12/05 10:45:57;;;;;;;9.50;3.77;;;6.50;69.30;;;;;;5071082;28;46596;-67
2021/12/05 10:48:31;;;;;;;7.50;2.07;;;6.20;68.50;;;;;;5072896;27;48693;-67
2021/12/05 10:51:06;;;;;;;12.90;2.20;;;6.30;69.30;;;;;;5074479;28;46523;-66
2021/12/05 10:53:33;;;;;;;5.73;2.70;;;6.40;68.70;;;;;;5073596;28;46556;-66
2021/12/05 10:56:14;;;;;;;6.83;2.37;;;6.30;68.30;;;;;;5071636;27;46017;-67
2021/12/05 10:58:45;;;;;;;7.20;1.40;;;6.20;68.00;;;;;;5079024;28;48926;-66
2021/12/05 11:01:22;;;;;;;7.70;3.73;;;6.10;68.30;;;;;;5071244;28;46464;-66
2021/12/05 11:03:53;;;;;;;12.00;1.87;;;6.20;68.10;;;;;;5066687;28;46415;-66
2021/12/05 11:06:21;;;;;;;8.83;2.67;;;6.30;68.20;;;;;;5075095;28;46735;-66
2021/12/05 11:08:59;;;;;;;8.70;2.20;;;6.40;67.50;;;;;;5072543;27;47957;-66
2021/12/05 11:11:26;;;;;;;9.70;3.33;;;6.50;67.10;;;;;;5073148;28;46463;-66
2021/12/05 11:13:52;;;;;;;8.03;3.63;;;6.50;66.80;;;;;;5067784;28;46383;-66
2021/12/05 11:16:36;;;;;;;5.23;1.90;;;6.40;66.30;;;;;;5070956;28;45971;-67
2021/12/05 11:19:18;;;;;;;6.87;2.50;;;6.40;66.70;;;;;;5077011;28;47765;-67
2021/12/05 11:21:47;;;;;;;4.20;1.60;;;6.30;66.10;;;;;;5073446;28;46453;-66
2021/12/05 11:24:21;;;;;;;4.13;1.40;;;6.30;66.40;;;;;;5070467;28;45886;-66
2021/12/05 11:27:13;;;;;;;3.90;1.77;;;6.40;66.40;;;;;;5076327;28;46641;-66
2021/12/05 11:29:43;;;;;;;2.43;1.10;;;6.50;66.30;;;;;;5071800;28;47775;-66
2021/12/05 11:32:19;;;;;;;4.10;1.70;;;6.60;66.30;;;;;;5072892;27;46766;-67
2021/12/05 11:34:47;;;;;;;2.80;1.20;;;6.70;66.00;;;;;;5069658;28;46457;-66
2021/12/05 11:37:13;;;;;;;2.60;1.37;;;6.80;65.80;;;;;;5066715;28;46364;-65
2021/12/05 11:39:39;;;;;;;3.10;1.40;;;6.80;65.70;;;;;;5071751;28;47319;-66
2021/12/05 11:42:20;;;;;;;2.00;1.00;;;6.90;65.70;;;;;;5073105;27;46459;-68
2021/12/05 11:44:52;;;;;;;4.87;2.10;;;6.90;65.40;;;;;;5072556;28;46419;-64
2021/12/05 11:47:23;;;;;;;4.17;1.60;;;6.90;65.20;;;;;;5067451;28;46407;-66
2021/12/05 11:49:49;;;;;;;2.63;1.37;;;6.90;65.20;;;;;;5074898;28;47927;-66
2021/12/05 11:52:22;;;;;;;5.43;1.40;;;6.90;64.90;;;;;;5069487;27;46939;-67
2021/12/05 11:54:50;;;;;;;4.50;1.38;;;6.80;65.20;;;;;;5065061;28;46610;-66
2021/12/05 11:57:27;;;;;;;3.00;1.27;;;6.80;64.70;;;;;;5070762;28;46340;-66
2021/12/05 11:59:54;;;;;;;2.37;1.13;;;6.80;64.60;;;;;;5073019;28;48030;-66
2021/12/05 12:02:26;;;;;;;5.80;1.70;;;6.80;64.60;;;;;;5067969;28;46441;-67
2021/12/05 12:05:07;;;;;;;3.90;1.33;;;6.90;64.60;;;;;;5078055;28;46543;-67
2021/12/05 12:07:34;;;;;;;3.37;1.10;;;6.90;64.50;;;;;;5077028;28;46533;-66
2021/12/05 12:10:33;;;;;;;2.97;1.27;;;6.80;64.60;;;;;;5071765;28;48728;-67
2021/12/05 12:13:22;;;;;;;6.60;1.40;;;6.90;64.40;;;;;;5077801;28;45872;-67
2021/12/05 12:15:58;;;;;;;3.10;1.20;;;6.90;64.40;;;;;;5069855;28;46410;-66
2021/12/05 12:18:33;;;;;;;3.30;1.03;;;6.90;64.30;;;;;;5068521;28;46309;-67
2021/12/05 12:21:07;;;;;;;3.43;1.23;;;6.90;64.30;;;;;;5072715;28;46695;-67
2021/12/05 12:23:33;;;;;;;6.50;1.33;;;6.80;64.30;;;;;;5068470;28;46353;-67
2021/12/05 12:26:02;;;;;;;2.53;1.20;;;6.80;64.50;;;;;;5069023;27;46417;-66
2021/12/05 12:28:28;;;;;;;3.70;3.00;;;6.80;64.30;;;;;;5073584;28;46451;-66
2021/12/05 12:31:09;;;;;;;5.40;1.63;;;6.90;64.30;;;;;;5073179;28;48007;-66
2021/12/05 12:33:57;;;;;;;2.77;1.00;;;6.90;64.10;;;;;;5068892;28;46750;-66
2021/12/05 12:36:47;;;;;;;4.23;1.30;;;6.90;64.10;;;;;;5072264;28;46534;-66
2021/12/05 12:39:16;;;;;;;2.37;0.90;;;6.90;63.90;;;;;;5071256;28;46259;-66
2021/12/05 12:42:01;;;;;;;19.17;6.97;;;6.90;63.80;;;;;;5078549;27;49083;-66
2021/12/05 12:44:27;;;;;;;54.33;22.50;;;6.90;63.90;;;;;;5076462;27;46448;-67
2021/12/05 12:47:01;;;;;;;55.23;22.17;;;6.90;63.80;;;;;;5075520;28;46958;-66
2021/12/05 12:49:33;;;;;;;50.73;19.40;;;7.00;63.50;;;;;;5070046;28;46363;-66
2021/12/05 12:52:03;;;;;;;9.93;3.90;;;6.90;63.60;;;;;;5076442;28;48062;-66
2021/12/05 12:54:32;;;;;;;4.53;2.00;;;6.90;63.50;;;;;;5073918;28;46660;-67
2021/12/05 12:57:03;;;;;;;5.53;2.00;;;6.90;63.40;;;;;;5071039;28;46972;-66
2021/12/05 12:59:32;;;;;;;4.83;1.77;;;6.70;62.90;;;;;;5075420;27;46496;-66
2021/12/05 13:05:19;;;;;;;5.53;1.20;;;6.40;63.50;;;;;;5071063;28;46358;-66
2021/12/05 13:10:41;;;;;;;3.20;1.80;;;6.40;63.80;;;;;;5069116;28;46364;-66
2021/12/05 13:13:25;;;;;;;7.13;1.73;;;6.30;63.10;;;;;;5069170;28;48356;-66
2021/12/05 13:16:27;;;;;;;4.10;1.50;;;6.30;63.30;;;;;;5071125;28;46344;-66
2021/12/05 13:19:10;;;;;;;2.60;1.10;;;6.40;63.10;;;;;;5069556;28;46441;-66
2021/12/05 13:21:40;;;;;;;2.03;1.20;;;6.50;63.10;;;;;;5076232;28;46328;-66
2021/12/05 13:24:26;;;;;;;2.40;1.30;;;6.50;62.70;;;;;;5068894;28;46292;-67
2021/12/05 13:27:25;;;;;;;3.00;1.43;;;6.60;62.50;;;;;;5075839;28;46537;-66
2021/12/05 13:29:56;;;;;;;4.60;1.30;;;6.60;62.50;;;;;;5082903;27;46505;-65
2021/12/05 13:32:27;;;;;;;5.47;1.70;;;6.40;62.90;;;;;;5076487;28;46391;-66
2021/12/05 13:35:01;;;;;;;2.43;1.00;;;6.40;63.20;;;;;;5066261;28;47114;-67
2021/12/05 13:37:36;;;;;;;5.07;1.43;;;6.50;63.10;;;;;;5069495;27;45926;-66
2021/12/05 13:40:16;;;;;;;3.23;1.43;;;6.50;63.00;;;;;;5068119;28;46359;-67
2021/12/05 13:42:47;;;;;;;6.13;1.23;;;6.50;62.90;;;;;;5069046;28;46881;-66
2021/12/05 13:45:27;;;;;;;1.83;1.10;;;6.60;62.70;;;;;;5069408;28;48031;-66
2021/12/05 13:47:54;;;;;;;2.10;1.30;;;6.60;62.90;;;;;;5069821;28;46430;-67
2021/12/05 13:50:22;;;;;;;4.30;1.70;;;6.50;63.00;;;;;;5070773;28;46662;-66
2021/12/05 13:52:59;;;;;;;4.10;1.20;;;6.60;62.90;;;;;;5074326;28;45976;-66
2021/12/05 13:55:39;;;;;;;4.47;1.30;;;6.60;62.80;;;;;;5069305;28;48806;-66
2021/12/05 13:58:40;;;;;;;6.73;1.43;;;6.50;62.90;;;;;;5069859;28;45794;-67
2021/12/05 14:01:31;;;;;;;3.23;1.30;;;6.40;62.90;;;;;;5076334;28;46237;-66
2021/12/05 14:04:19;;;;;;;2.50;1.17;;;6.40;62.90;;;;;;5070168;28;46446;-67
2021/12/05 14:07:04;;;;;;;1.43;1.00;;;6.20;62.90;;;;;;5078067;28;48863;-67
2021/12/05 14:09:38;;;;;;;4.47;1.40;;;6.20;63.40;;;;;;5072613;28;46563;-67
2021/12/05 14:12:13;;;;;;;4.63;1.63;;;6.20;63.20;;;;;;5070245;28;45941;-67
2021/12/05 14:14:50;;;;;;;1.40;1.00;;;6.20;63.20;;;;;;5073749;28;45913;-67
2021/12/05 14:17:23;;;;;;;2.20;1.10;;;6.20;63.00;;;;;;5067960;28;48889;-67
2021/12/05 14:20:00;;;;;;;3.23;1.20;;;6.20;63.00;;;;;;5078583;28;46482;-67
2021/12/05 14:22:30;;;;;;;5.13;1.40;;;6.20;62.90;;;;;;5078702;28;46334;-65
2021/12/05 14:24:58;;;;;;;2.90;1.40;;;6.20;63.10;;;;;;5067948;28;45844;-66
2021/12/05 14:27:31;;;;;;;4.30;1.40;;;6.20;63.10;;;;;;5068629;28;46387;-66
2021/12/05 14:29:58;;;;;;;2.13;1.60;;;6.10;63.00;;;;;;5069127;28;46708;-66
2021/12/05 14:32:28;;;;;;;2.87;1.10;;;6.00;63.20;;;;;;5068975;27;45894;-66
2021/12/05 14:34:56;;;;;;;3.70;1.37;;;6.00;63.40;;;;;;5070989;27;46396;-66
2021/12/05 14:37:25;;;;;;;4.80;1.33;;;6.00;63.40;;;;;;5074176;28;47875;-66
2021/12/05 14:39:59;;;;;;;3.70;1.20;;;6.00;63.50;;;;;;5069560;28;46549;-65
2021/12/05 14:42:28;;;;;;;4.57;1.33;;;6.00;63.50;;;;;;5077411;28;46481;-66
2021/12/05 14:45:01;;;;;;;3.00;1.40;;;5.90;63.70;;;;;;5072000;28;46587;-67
2021/12/05 14:47:30;;;;;;;4.03;1.30;;;5.90;63.80;;;;;;5074585;28;46639;-66
2021/12/05 14:50:03;;;;;;;2.40;1.20;;;5.90;63.90;;;;;;5074204;28;46248;-67
2021/12/05 14:52:35;;;;;;;4.60;1.53;;;5.90;63.90;;;;;;5075806;28;45764;-65
2021/12/05 14:55:04;;;;;;;10.83;1.50;;;5.80;64.10;;;;;;5071004;28;46482;-66
2021/12/05 14:57:33;;;;;;;5.03;1.33;;;5.80;64.30;;;;;;5074256;28;47874;-65
2021/12/05 15:00:11;;;;;;;1.70;1.10;;;5.70;64.30;;;;;;5075611;28;45909;-66
2021/12/05 15:02:37;;;;;;;2.77;1.10;;;5.70;64.50;;;;;;5074159;28;46387;-65
2021/12/05 15:05:09;;;;;;;3.10;1.13;;;5.70;64.60;;;;;;5074787;27;46566;-66
2021/12/05 15:07:36;;;;;;;11.27;1.57;;;5.60;64.50;;;;;;5071431;27;46400;-66
2021/12/05 15:10:04;;;;;;;8.27;1.60;;;5.60;64.60;;;;;;5076147;27;46599;-65
2021/12/05 15:12:33;;;;;;;2.90;1.17;;;5.60;64.70;;;;;;5076723;28;46307;-66
2021/12/05 15:15:07;;;;;;;4.87;1.87;;;5.60;64.60;;;;;;5078284;27;46380;-66
2021/12/05 15:17:35;;;;;;;17.10;6.10;;;5.60;64.60;;;;;;5081701;28;47846;-66
2021/12/05 15:20:17;;;;;;;15.67;6.53;;;5.60;64.60;;;;;;5075797;28;46438;-66
2021/12/05 15:22:48;;;;;;;7.23;3.27;;;5.50;64.50;;;;;;5075661;28;46475;-65
2021/12/05 15:25:17;;;;;;;6.00;2.80;;;5.60;64.70;;;;;;5077700;27;46394;-65
2021/12/05 15:27:44;;;;;;;7.43;3.77;;;5.50;64.70;;;;;;5079018;28;46338;-66
2021/12/05 15:30:12;;;;;;;4.97;3.13;;;5.40;64.70;;;;;;5078577;28;46970;-66
2021/12/05 15:32:39;;;;;;;6.27;3.10;;;5.40;64.80;;;;;;5078323;28;46581;-66
2021/12/05 15:35:10;;;;;;;6.00;3.33;;;5.40;64.90;;;;;;5073115;28;46271;-66
2021/12/05 15:37:36;;;;;;;9.60;5.00;;;5.30;64.90;;;;;;5078062;28;49259;-67
2021/12/05 15:40:06;;;;;;;7.27;4.30;;;5.30;64.90;;;;;;5073234;28;46406;-66
2021/12/05 15:42:36;;;;;;;13.90;4.50;;;5.30;65.00;;;;;;5073056;28;46496;-66
2021/12/05 15:45:06;;;;;;;9.40;4.50;;;5.30;65.10;;;;;;5069290;27;46535;-64
2021/12/05 15:47:34;;;;;;;7.13;4.67;;;5.30;65.10;;;;;;5076532;28;48156;-66
2021/12/05 15:50:24;;;;;;;12.60;5.53;;;5.30;65.10;;;;;;5074633;28;45846;-66
2021/12/05 15:52:53;;;;;;;15.53;6.97;;;5.30;64.90;;;;;;5072612;27;46483;-66
2021/12/05 15:55:32;;;;;;;21.30;8.20;;;5.30;65.00;;;;;;5087414;27;46434;-66
2021/12/05 15:58:08;;;;;;;23.77;10.03;;;5.30;65.00;;;;;;5079858;28;46963;-66
2021/12/05 16:01:05;;;;;;;12.93;7.47;;;5.30;65.00;;;;;;5068152;28;46457;-66
2021/12/05 16:03:50;;;;;;;10.93;5.63;;;5.30;65.10;;;;;;5063532;28;46589;-66
2021/12/05 16:06:18;;;;;;;13.17;5.87;;;5.30;64.90;;;;;;5090892;27;46408;-66
2021/12/05 16:08:49;;;;;;;12.93;6.87;;;5.30;64.80;;;;;;5071157;28;48006;-67
2021/12/05 16:11:18;;;;;;;16.17;9.32;;;5.30;64.80;;;;;;5072237;27;46673;-66
2021/12/05 16:13:47;;;;;;;16.63;8.60;;;5.20;64.80;;;;;;5072511;27;46363;-65
2021/12/05 16:16:29;;;;;;;19.70;8.63;;;5.30;64.90;;;;;;5086515;27;46646;-66
2021/12/05 16:18:58;;;;;;;22.90;9.47;;;5.20;66.20;;;;;;5076601;28;47792;-67
2021/12/05 16:21:30;;;;;;;18.70;8.80;;;5.20;65.20;;;;;;5071962;28;46407;-66
2021/12/05 16:24:03;;;;;;;13.47;8.07;;;5.20;65.20;;;;;;5079588;28;46405;-67
2021/12/05 16:26:30;;;;;;;11.23;4.00;;;5.20;65.30;;;;;;5065527;27;46462;-66
2021/12/05 16:29:05;;;;;;;9.90;5.00;;;5.20;65.30;;;;;;5072853;28;49031;-66
2021/12/05 16:31:40;;;;;;;13.57;9.52;;;5.20;65.30;;;;;;5088472;27;46367;-67
2021/12/05 16:34:08;;;;;;;14.43;8.40;;;5.10;65.20;;;;;;5070857;28;46561;-66
2021/12/05 16:36:41;;;;;;;8.17;6.40;;;5.10;65.30;;;;;;5077479;28;46377;-66
2021/12/05 16:39:14;;;;;;;9.20;4.63;;;5.10;65.20;;;;;;5069910;27;49045;-65
2021/12/05 16:41:49;;;;;;;7.90;4.50;;;5.20;65.30;;;;;;5070993;28;46521;-67
2021/12/05 16:44:21;;;;;;;7.10;4.17;;;5.10;65.20;;;;;;5072399;28;46373;-66
2021/12/05 16:46:48;;;;;;;8.30;3.67;;;5.10;65.20;;;;;;5077942;28;46517;-67
2021/12/05 16:49:19;;;;;;;11.57;5.23;;;5.10;65.20;;;;;;5069959;27;46624;-66
2021/12/05 16:51:57;;;;;;;21.77;10.60;;;5.10;65.30;;;;;;5063595;28;46378;-67
2021/12/05 16:54:43;;;;;;;27.30;13.20;;;5.00;65.20;;;;;;5072115;28;46409;-66
2021/12/05 16:57:17;;;;;;;40.53;18.50;;;5.00;65.30;;;;;;5069845;28;46442;-67
2021/12/05 16:59:47;;;;;;;13.23;7.20;;;4.90;65.30;;;;;;5070656;28;46466;-67
2021/12/05 17:02:21;;;;;;;43.17;12.30;;;4.90;66.90;;;;;;5079334;28;46761;-65
2021/12/05 17:04:58;;;;;;;17.10;9.05;;;4.70;65.90;;;;;;5072277;27;46303;-66
2021/12/05 17:10:42;;;;;;;8.70;5.87;;;4.60;66.60;;;;;;5075494;28;46282;-66
2021/12/05 17:13:18;;;;;;;9.80;5.63;;;4.70;66.50;;;;;;5074088;28;46502;-66
2021/12/05 17:15:48;;;;;;;14.73;6.70;;;4.70;66.40;;;;;;5078515;28;46415;-67
2021/12/05 17:18:36;;;;;;;4.93;2.73;;;4.70;66.20;;;;;;5087458;27;46369;-67
2021/12/05 17:21:08;;;;;;;4.67;1.87;;;4.70;66.70;;;;;;5075575;28;47980;-67
2021/12/05 17:23:38;;;;;;;5.40;1.25;;;4.60;67.20;;;;;;5072926;28;46509;-66
2021/12/05 17:26:33;;;;;;;2.90;1.30;;;4.50;67.30;;;;;;5070560;28;45909;-66
2021/12/05 17:29:09;;;;;;;3.20;1.33;;;4.50;67.30;;;;;;5069171;27;45928;-66
2021/12/05 17:31:41;;;;;;;4.20;1.40;;;4.60;67.30;;;;;;5075734;27;49028;-66
2021/12/05 17:34:48;;;;;;;8.18;1.40;;;4.50;67.20;;;;;;5073748;27;46444;-65
2021/12/05 17:37:22;;;;;;;20.65;9.25;;;4.50;67.30;;;;;;5075927;28;45911;-66
2021/12/05 17:39:49;;;;;;;6.00;3.23;;;4.50;67.20;;;;;;5067137;28;46449;-67
2021/12/05 17:42:23;;;;;;;5.93;2.10;;;4.60;67.30;;;;;;5074004;27;46432;-67
2021/12/05 17:44:51;;;;;;;3.08;1.90;;;4.50;67.20;;;;;;5078234;28;46579;-66
2021/12/05 17:47:18;;;;;;;2.50;1.43;;;4.50;67.30;;;;;;5071762;28;46382;-66
2021/12/05 17:49:46;;;;;;;10.97;4.53;;;4.50;67.30;;;;;;5069936;28;45939;-66
2021/12/05 17:52:15;;;;;;;7.20;3.00;;;4.50;67.30;;;;;;5067121;28;47966;-66
2021/12/05 17:54:54;;;;;;;9.40;3.60;;;4.50;67.40;;;;;;5074316;27;46404;-66
2021/12/05 17:57:33;;;;;;;26.73;8.63;;;4.50;67.40;;;;;;5071873;28;46300;-66
2021/12/05 18:00:12;;;;;;;1.77;0.80;;;4.50;67.40;;;;;;5072139;28;46061;-67
2021/12/05 18:02:48;;;;;;;4.67;1.90;;;4.40;67.60;;;;;;5070428;27;48976;-65
2021/12/05 18:05:19;;;;;;;118.43;48.57;;;4.40;67.60;;;;;;5070046;28;46158;-66
2021/12/05 18:07:47;;;;;;;31.43;15.13;;;4.30;67.50;;;;;;5069543;28;46467;-66
2021/12/05 18:10:15;;;;;;;5.40;3.00;;;4.30;67.60;;;;;;5069448;28;46653;-66
2021/12/05 18:12:43;;;;;;;3.33;2.50;;;4.20;67.60;;;;;;5072095;28;48866;-66
2021/12/05 18:15:19;;;;;;;1.80;1.38;;;4.20;67.80;;;;;;5067112;27;46527;-67
2021/12/05 18:17:45;;;;;;;3.80;1.77;;;4.10;68.00;;;;;;5080262;27;46464;-67
2021/12/05 18:20:14;;;;;;;1.30;1.10;;;4.10;68.10;;;;;;5067406;28;46424;-68
2021/12/05 18:22:41;;;;;;;4.60;1.10;;;4.00;68.20;;;;;;5072491;28;48067;-65
2021/12/05 18:25:09;;;;;;;1.98;1.02;;;4.00;68.20;;;;;;5071775;28;46322;-67
2021/12/05 18:27:38;;;;;;;2.85;1.10;;;4.00;68.20;;;;;;5073733;27;46293;-65
2021/12/05 18:30:06;;;;;;;1.80;1.30;;;4.00;68.10;;;;;;5072124;28;46005;-67
2021/12/05 18:32:33;;;;;;;4.07;1.40;;;4.00;68.10;;;;;;5073282;28;46594;-68
2021/12/05 18:34:59;;;;;;;2.75;1.27;;;4.10;68.20;;;;;;5071458;28;46474;-67
2021/12/05 18:37:25;;;;;;;1.80;1.10;;;4.00;68.00;;;;;;5077069;27;46508;-67
2021/12/05 18:39:52;;;;;;;2.67;0.80;;;4.10;68.10;;;;;;5075580;27;46413;-67
2021/12/05 18:42:21;;;;;;;2.63;0.80;;;4.00;67.90;;;;;;5076322;27;47953;-67
2021/12/05 18:44:52;;;;;;;1.70;1.00;;;4.00;68.10;;;;;;5086641;27;46387;-67
2021/12/05 18:47:18;;;;;;;1.25;0.80;;;4.00;68.20;;;;;;5070646;28;46628;-66
2021/12/05 18:49:45;;;;;;;3.23;1.37;;;4.10;68.30;;;;;;5073705;28;46561;-66
2021/12/05 18:52:11;;;;;;;7.38;4.10;;;4.00;68.20;;;;;;5065375;28;47151;-66
2021/12/05 18:54:42;;;;;;;5.00;3.50;;;4.00;68.40;;;;;;5070524;28;46465;-67
2021/12/05 18:57:19;;;;;;;5.57;2.85;;;4.00;68.30;;;;;;5067737;28;46331;-66
2021/12/05 18:59:57;;;;;;;3.00;1.80;;;3.90;69.40;;;;;;5071782;28;46395;-66
2021/12/05 19:05:11;;;;;;;7.78;5.97;;;3.90;68.30;;;;;;5067449;28;46377;-67